createdAt,value
2022-11-17T00:02:19.701Z,98907.06
2022-11-17T00:05:23.644Z,98906.25
2022-11-17T00:08:26.120Z,98912.56
2022-11-17T00:11:48.622Z,98902.63
2022-11-17T00:14:52.065Z,98916.09
2022-11-17T00:18:13.308Z,98906.16
2022-11-17T00:21:18.946Z,98917.66
2022-11-17T00:24:23.755Z,98880.81
2022-11-17T00:27:26.157Z,98900.62
2022-11-17T00:30:51.684Z,98887.94
2022-11-17T00:34:08.007Z,98912.56
2022-11-17T00:37:12.956Z,98915.22
2022-11-17T00:40:15.349Z,98902.91
2022-11-17T00:43:17.854Z,98896.69
2022-11-17T00:46:20.227Z,98889.63
2022-11-17T00:49:26.579Z,98905.84
2022-11-17T00:52:28.785Z,98894.84
2022-11-17T00:55:31.406Z,98897.66
2022-11-17T00:58:35.477Z,98890.06
2022-11-17T01:01:38.405Z,98896.00
2022-11-17T01:04:40.720Z,98880.44
2022-11-17T01:07:43.396Z,98907.34
2022-11-17T01:10:48.687Z,98895.56
2022-11-17T01:13:55.109Z,98880.09
2022-11-17T01:16:57.364Z,98883.78
2022-11-17T01:19:59.891Z,98861.94
2022-11-17T01:23:02.119Z,98855.66
2022-11-17T01:26:08.254Z,98841.06
2022-11-17T01:29:13.118Z,98858.13
2022-11-17T01:32:15.617Z,98849.66
2022-11-17T01:35:17.897Z,98856.91
2022-11-17T01:38:20.438Z,98865.47
2022-11-17T01:41:25.230Z,98860.34
2022-11-17T01:44:36.142Z,98867.34
2022-11-17T01:47:40.626Z,98867.34
2022-11-17T01:50:49.299Z,98846.31
2022-11-17T01:53:52.049Z,98859.84
2022-11-17T01:57:00.940Z,98833.22
2022-11-17T02:00:08.631Z,98865.66
2022-11-17T02:03:11.797Z,98859.22
2022-11-17T02:06:20.932Z,98861.53
2022-11-17T02:09:24.623Z,98880.19
2022-11-17T02:12:28.211Z,98862.34
2022-11-17T02:15:30.775Z,98885.69
2022-11-17T02:18:33.083Z,98892.34
2022-11-17T02:22:09.215Z,98868.59
2022-11-17T02:25:33.384Z,98883.81
2022-11-17T02:28:49.323Z,98877.62
2022-11-17T02:32:04.259Z,98876.03
2022-11-17T02:35:21.637Z,98863.28
2022-11-17T02:38:32.403Z,98865.84
2022-11-17T02:41:49.412Z,98859.84
2022-11-17T02:44:58.367Z,98838.94
2022-11-17T02:48:05.443Z,98854.06
2022-11-17T02:51:13.275Z,98840.44
2022-11-17T02:54:16.635Z,98852.84
2022-11-17T02:57:49.598Z,98834.97
2022-11-17T03:00:59.691Z,98841.75
2022-11-17T03:04:26.008Z,98841.34
2022-11-17T03:07:57.614Z,98855.41
2022-11-17T03:11:05.349Z,98855.34
2022-11-17T03:14:42.678Z,98846.66
2022-11-17T03:17:56.882Z,98831.25
2022-11-17T03:21:31.154Z,98825.25
2022-11-17T03:24:50.346Z,98827.91
2022-11-17T03:27:58.711Z,98829.72
2022-11-17T03:31:04.193Z,98805.56
2022-11-17T03:34:11.613Z,98812.37
2022-11-17T03:37:18.872Z,98809.47
2022-11-17T03:40:25.530Z,98823.44
2022-11-17T03:43:30.073Z,98807.81
2022-11-17T03:46:36.550Z,98835.25
2022-11-17T03:49:45.266Z,98843.00
2022-11-17T03:52:48.943Z,98848.41
2022-11-17T03:56:11.567Z,98865.47
2022-11-17T03:59:19.872Z,98867.78
2022-11-17T04:02:23.946Z,98875.53
2022-11-17T04:05:27.444Z,98856.53
2022-11-17T04:08:30.939Z,98879.87
2022-11-17T04:11:52.344Z,98882.63
2022-11-17T04:15:13.069Z,98881.00
2022-11-17T04:18:19.199Z,98854.12
2022-11-17T04:21:21.511Z,98869.28
2022-11-17T04:24:24.151Z,98866.06
2022-11-17T04:27:45.030Z,98861.38
2022-11-17T04:30:47.523Z,98847.16
2022-11-17T04:33:51.854Z,98846.62
2022-11-17T04:36:54.421Z,98851.84
2022-11-17T04:39:56.649Z,98866.16
2022-11-17T04:42:59.163Z,98849.47
2022-11-17T04:46:01.430Z,98852.53
2022-11-17T04:49:05.015Z,98863.25
2022-11-17T04:52:07.472Z,98867.56
2022-11-17T04:55:10.000Z,98856.69
2022-11-17T04:58:12.276Z,98898.88
2022-11-17T05:01:17.492Z,98894.91
2022-11-17T05:04:39.930Z,98877.56
2022-11-17T05:07:42.542Z,98886.31
2022-11-17T05:11:05.014Z,98876.16
2022-11-17T05:14:08.165Z,98897.66
2022-11-17T05:17:11.802Z,98895.34
2022-11-17T05:20:17.613Z,98884.22
2022-11-17T05:23:49.116Z,98897.03
2022-11-17T05:26:51.658Z,98903.78
2022-11-17T05:29:53.973Z,98901.81
2022-11-17T05:32:56.533Z,98911.28
2022-11-17T05:35:58.907Z,98888.09
2022-11-17T05:39:01.752Z,98905.78
2022-11-17T05:42:04.156Z,98898.72
2022-11-17T05:45:07.463Z,98897.03
2022-11-17T05:48:09.688Z,98889.16
2022-11-17T05:51:12.404Z,98875.09
2022-11-17T05:54:14.717Z,98908.63
2022-11-17T05:57:25.582Z,98895.44
2022-11-17T06:00:29.438Z,98915.69
2022-11-17T06:03:39.868Z,98914.97
2022-11-17T06:06:42.083Z,98929.84
2022-11-17T06:09:45.830Z,98912.50
2022-11-17T06:12:48.171Z,98923.75
2022-11-17T06:15:50.739Z,98932.50
2022-11-17T06:19:08.792Z,98900.94
2022-11-17T06:22:13.337Z,98927.13
2022-11-17T06:25:18.670Z,98922.81
2022-11-17T06:28:22.570Z,98934.84
2022-11-17T06:31:27.965Z,98936.63
2022-11-17T06:34:32.888Z,98934.41
2022-11-17T06:37:35.299Z,98936.25
2022-11-17T06:40:37.952Z,98929.41
2022-11-17T06:43:40.212Z,98924.34
2022-11-17T06:46:47.607Z,98938.31
2022-11-17T06:49:51.130Z,98936.09
2022-11-17T06:53:00.546Z,98938.50
2022-11-17T06:56:07.471Z,98940.09
2022-11-17T06:59:10.102Z,98937.59
2022-11-17T07:02:12.392Z,98939.06
2022-11-17T07:05:15.123Z,98951.09
2022-11-17T07:08:19.028Z,98942.47
2022-11-17T07:11:21.686Z,98927.78
2022-11-17T07:14:23.932Z,98958.31
2022-11-17T07:17:27.368Z,98949.44
2022-11-17T07:20:29.623Z,98948.44
2022-11-17T07:23:33.208Z,98943.94
2022-11-17T07:26:35.578Z,98951.25
2022-11-17T07:29:38.145Z,98934.22
2022-11-17T07:32:40.583Z,98953.72
2022-11-17T07:35:43.504Z,98948.78
2022-11-17T07:38:45.808Z,98945.31
2022-11-17T07:41:48.362Z,98939.47
2022-11-17T07:44:50.718Z,98943.38
2022-11-17T07:47:58.590Z,98949.53
2022-11-17T07:51:02.045Z,98949.44
2022-11-17T07:54:04.943Z,98946.94
2022-11-17T07:57:07.631Z,98956.16
2022-11-17T08:00:11.274Z,98941.59
2022-11-17T08:03:14.195Z,98950.84
2022-11-17T08:06:17.128Z,98931.34
2022-11-17T08:09:19.486Z,98935.59
2022-11-17T08:12:22.156Z,98953.72
2022-11-17T08:15:24.698Z,98955.59
2022-11-17T08:18:28.713Z,98960.84
2022-11-17T08:21:31.106Z,98946.75
2022-11-17T08:24:33.732Z,98965.69
2022-11-17T08:27:36.016Z,98976.19
2022-11-17T08:30:38.772Z,98977.56
2022-11-17T08:33:41.040Z,98959.00
2022-11-17T08:36:44.070Z,98979.72
2022-11-17T08:39:46.341Z,98975.81
2022-11-17T08:43:00.354Z,98986.66
2022-11-17T08:46:03.930Z,98943.03
2022-11-17T08:49:06.518Z,98983.09
2022-11-17T08:52:08.782Z,98972.41
2022-11-17T08:55:11.479Z,99003.28
2022-11-17T08:58:13.812Z,99007.66
2022-11-17T09:01:16.986Z,99005.13
2022-11-17T09:04:19.531Z,99013.50
2022-11-17T09:07:22.191Z,99013.75
2022-11-17T09:10:25.229Z,98993.25
2022-11-17T09:13:27.796Z,99007.84
2022-11-17T09:16:30.120Z,99015.31
2022-11-17T09:19:32.804Z,99007.50
2022-11-17T09:22:35.069Z,99029.84
2022-11-17T09:25:37.598Z,99029.72
2022-11-17T09:28:40.510Z,99034.16
2022-11-17T09:31:43.253Z,99041.06
2022-11-17T09:34:45.794Z,99026.75
2022-11-17T09:37:48.478Z,99013.59
2022-11-17T09:40:51.280Z,99036.69
2022-11-17T09:44:18.280Z,99038.34
2022-11-17T09:47:46.103Z,99031.31
2022-11-17T09:50:50.663Z,99003.41
2022-11-17T09:53:59.671Z,99017.06
2022-11-17T09:57:05.035Z,99002.63
2022-11-17T10:00:21.015Z,99000.81
2022-11-17T10:03:30.865Z,98990.47
2022-11-17T10:06:33.192Z,99014.88
2022-11-17T10:09:41.962Z,99002.47
2022-11-17T10:12:50.718Z,99011.72
2022-11-17T10:16:13.284Z,98996.16
2022-11-17T10:19:24.574Z,99016.88
2022-11-17T10:22:35.012Z,99017.87
2022-11-17T10:25:48.583Z,99011.06
2022-11-17T10:29:11.473Z,99002.00
2022-11-17T10:32:15.229Z,98996.16
2022-11-17T10:35:19.417Z,99002.31
2022-11-17T10:38:23.198Z,99017.19
2022-11-17T10:41:30.589Z,99012.00
2022-11-17T10:44:33.901Z,99019.09
2022-11-17T10:47:40.480Z,99016.47
2022-11-17T10:51:19.553Z,99015.38
2022-11-17T10:54:22.212Z,99009.69
2022-11-17T10:57:26.890Z,98985.44
2022-11-17T11:00:32.777Z,99010.72
2022-11-17T11:03:35.916Z,98983.34
2022-11-17T11:06:47.719Z,98977.91
2022-11-17T11:09:56.253Z,98998.19
2022-11-17T11:13:20.169Z,99006.31
2022-11-17T11:16:25.521Z,99013.44
2022-11-17T11:19:30.224Z,99010.47
2022-11-17T11:22:42.289Z,99004.50
2022-11-17T11:25:57.429Z,99006.44
2022-11-17T11:29:21.277Z,98997.00
2022-11-17T11:32:48.477Z,98989.91
2022-11-17T11:36:11.402Z,99002.66
2022-11-17T11:39:37.397Z,99014.97
2022-11-17T11:42:58.763Z,99016.97
2022-11-17T11:46:16.336Z,99020.13
2022-11-17T11:49:34.112Z,99014.94
2022-11-17T11:52:40.357Z,99008.63
2022-11-17T11:55:46.947Z,98990.41
2022-11-17T11:58:59.150Z,98988.75
2022-11-17T12:02:24.580Z,98993.84
2022-11-17T12:06:40.878Z,98988.81
2022-11-17T12:09:46.136Z,98969.91
2022-11-17T12:12:51.993Z,98993.13
2022-11-17T12:16:18.295Z,99002.66
2022-11-17T12:19:55.237Z,99000.44
2022-11-17T12:23:19.819Z,99011.63
2022-11-17T12:26:31.035Z,99007.38
2022-11-17T12:29:48.413Z,98996.72
2022-11-17T12:32:53.068Z,98997.50
2022-11-17T12:36:29.695Z,99014.03
2022-11-17T12:40:02.077Z,99013.25
2022-11-17T12:43:14.659Z,99010.06
2022-11-17T12:46:33.397Z,99018.06
2022-11-17T12:50:03.126Z,99010.87
2022-11-17T12:53:19.801Z,99010.41
2022-11-17T12:56:43.605Z,99009.53
2022-11-17T12:59:46.371Z,99011.25
2022-11-17T13:03:10.855Z,98984.44
2022-11-17T13:09:38.656Z,99004.63
2022-11-17T13:12:41.421Z,98993.59
2022-11-17T13:15:44.617Z,99014.59
2022-11-17T13:18:49.019Z,99014.94
2022-11-17T13:21:59.018Z,98998.66
2022-11-17T13:25:13.017Z,99022.00
2022-11-17T13:28:45.051Z,99010.25
2022-11-17T13:31:47.816Z,99027.03
2022-11-17T13:34:56.747Z,99028.28
2022-11-17T13:38:18.497Z,99033.03
2022-11-17T13:49:54.905Z,99034.44
2022-11-17T13:53:18.760Z,99037.91
2022-11-17T13:56:32.771Z,99033.13
2022-11-17T13:59:38.499Z,99019.38
2022-11-17T14:02:53.418Z,99030.50
2022-11-17T14:05:59.139Z,99011.34
2022-11-17T14:09:05.584Z,99026.13
2022-11-17T14:12:10.766Z,99013.41
2022-11-17T14:15:23.027Z,99031.25
2022-11-17T14:18:29.130Z,99041.50
2022-11-17T14:21:33.977Z,99005.78
2022-11-17T14:24:38.117Z,99017.00
2022-11-17T14:27:40.562Z,99012.63
2022-11-17T14:30:43.693Z,99012.22
2022-11-17T14:33:46.098Z,98976.00
2022-11-17T14:36:55.354Z,99020.84
2022-11-17T14:40:00.699Z,99009.72
2022-11-17T14:43:03.272Z,98997.22
2022-11-17T14:46:06.946Z,99028.81
2022-11-17T14:49:09.677Z,99028.69
2022-11-17T14:52:11.816Z,99039.84
2022-11-17T14:55:14.789Z,99034.69
2022-11-17T14:58:17.123Z,99029.59
2022-11-17T15:01:28.387Z,99020.88
2022-11-17T15:07:55.347Z,99012.47
2022-11-17T15:10:58.365Z,99021.69
2022-11-17T15:14:06.461Z,98991.59
2022-11-17T15:17:13.939Z,99000.16
2022-11-17T15:20:18.164Z,99032.63
2022-11-17T15:23:20.469Z,99031.81
2022-11-17T15:26:23.835Z,99034.84
2022-11-17T15:29:26.562Z,99007.03
2022-11-17T15:32:29.848Z,99013.72
2022-11-17T15:35:32.448Z,99036.72
2022-11-17T15:38:35.876Z,99035.44
2022-11-17T15:41:38.279Z,98993.72
2022-11-17T15:44:41.086Z,99023.56
2022-11-17T15:47:43.367Z,99021.12
2022-11-17T15:50:45.912Z,99025.03
2022-11-17T15:53:49.808Z,98996.41
2022-11-17T15:56:52.690Z,98992.38
2022-11-17T15:59:55.069Z,99008.28
2022-11-17T16:02:58.873Z,98992.31
2022-11-17T16:06:01.864Z,99021.62
2022-11-17T16:09:06.598Z,99020.06
2022-11-17T16:12:13.496Z,98947.72
2022-11-17T16:15:18.932Z,98980.31
2022-11-17T16:18:22.232Z,98971.47
2022-11-17T16:21:24.822Z,98973.31
2022-11-17T16:24:27.864Z,99008.53
2022-11-17T16:27:32.033Z,98969.25
2022-11-17T16:30:35.851Z,98999.84
2022-11-17T16:33:38.242Z,98995.50
2022-11-17T16:36:42.687Z,98997.03
2022-11-17T16:39:45.049Z,98947.25
2022-11-17T16:42:47.666Z,99011.22
2022-11-17T16:45:49.972Z,98995.97
2022-11-17T16:48:54.247Z,99034.34
2022-11-17T16:51:59.031Z,99058.91
2022-11-17T16:55:05.282Z,99052.00
2022-11-17T16:58:09.415Z,99035.81
2022-11-17T17:01:13.894Z,99059.97
2022-11-17T17:04:16.286Z,99062.78
2022-11-17T17:07:19.152Z,99049.00
2022-11-17T17:10:21.648Z,99075.94
2022-11-17T17:13:24.217Z,99074.78
2022-11-17T17:16:26.532Z,99076.16
2022-11-17T17:19:29.335Z,99093.75
2022-11-17T17:22:31.629Z,99080.38
2022-11-17T17:25:34.525Z,99085.87
2022-11-17T17:28:40.569Z,99077.53
2022-11-17T17:31:43.398Z,99053.50
2022-11-17T17:34:45.793Z,99075.38
2022-11-17T17:37:48.566Z,99059.69
2022-11-17T17:40:50.904Z,99061.31
2022-11-17T17:43:59.245Z,99075.06
2022-11-17T17:47:01.520Z,99068.44
2022-11-17T17:50:04.352Z,99076.22
2022-11-17T17:53:07.672Z,99071.81
2022-11-17T17:56:12.810Z,99065.09
2022-11-17T17:59:16.578Z,99040.75
2022-11-17T18:02:19.608Z,99074.22
2022-11-17T18:05:22.684Z,99063.78
2022-11-17T18:08:24.975Z,99037.66
2022-11-17T18:11:27.597Z,99072.75
2022-11-17T18:14:29.856Z,99077.53
2022-11-17T18:17:32.418Z,99077.53
2022-11-17T18:20:35.418Z,99054.50
2022-11-17T18:23:38.561Z,99044.31
2022-11-17T18:26:41.322Z,99045.09
2022-11-17T18:29:43.946Z,99034.97
2022-11-17T18:32:46.263Z,99056.03
2022-11-17T18:35:48.835Z,99061.91
2022-11-17T18:38:52.797Z,99058.06
2022-11-17T18:41:56.221Z,99025.56
2022-11-17T18:44:58.568Z,99045.81
2022-11-17T18:48:01.130Z,99036.28
2022-11-17T18:51:19.017Z,99039.09
2022-11-17T18:54:22.316Z,99025.22
2022-11-17T18:57:24.640Z,99022.38
2022-11-17T19:00:27.215Z,99006.22
2022-11-17T19:03:29.459Z,99041.84
2022-11-17T19:06:32.129Z,99041.78
2022-11-17T19:09:34.650Z,99037.44
2022-11-17T19:12:38.786Z,99020.19
2022-11-17T19:15:41.483Z,99037.56
2022-11-17T19:18:46.149Z,98998.28
2022-11-17T19:21:48.334Z,99033.41
2022-11-17T19:24:52.136Z,99037.69
2022-11-17T19:27:54.579Z,99027.31
2022-11-17T19:31:04.705Z,99019.78
2022-11-17T19:34:07.389Z,99000.03
2022-11-17T19:37:09.955Z,99012.19
2022-11-17T19:40:12.632Z,99003.66
2022-11-17T19:43:17.926Z,98977.66
2022-11-17T19:46:20.694Z,98998.44
2022-11-17T19:49:23.378Z,99034.88
2022-11-17T19:52:27.128Z,99014.50
2022-11-17T19:55:29.643Z,99011.25
2022-11-17T19:58:31.865Z,99009.78
2022-11-17T20:01:35.931Z,99023.94
2022-11-17T20:04:39.693Z,99020.75
2022-11-17T20:07:42.076Z,99025.53
2022-11-17T20:10:44.825Z,99012.22
2022-11-17T20:13:47.651Z,98998.59
2022-11-17T20:16:50.206Z,99007.44
2022-11-17T20:19:52.572Z,99020.19
2022-11-17T20:22:55.785Z,99031.94
2022-11-17T20:25:58.361Z,99013.47
2022-11-17T20:29:01.582Z,98977.66
2022-11-17T20:32:03.973Z,99011.50
2022-11-17T20:35:06.951Z,99006.34
2022-11-17T20:38:13.039Z,99044.88
2022-11-17T20:41:20.952Z,99028.59
2022-11-17T20:44:26.359Z,99036.38
2022-11-17T20:47:29.615Z,99034.63
2022-11-17T20:50:32.118Z,99039.06
2022-11-17T20:53:35.410Z,99051.03
2022-11-17T20:56:37.656Z,99052.97
2022-11-17T20:59:40.667Z,99047.03
2022-11-17T21:02:42.895Z,99009.75
2022-11-17T21:05:58.384Z,99025.78
2022-11-17T21:09:01.388Z,99037.38
2022-11-17T21:12:04.088Z,99022.12
2022-11-17T21:15:06.880Z,99033.50
2022-11-17T21:18:26.124Z,99015.84
2022-11-17T21:21:28.653Z,98995.84
2022-11-17T21:24:31.240Z,99028.19
2022-11-17T21:27:33.497Z,99027.03
2022-11-17T21:30:36.079Z,98997.91
2022-11-17T21:33:39.267Z,99017.03
2022-11-17T21:36:42.329Z,99015.06
2022-11-17T21:39:44.539Z,99005.00
2022-11-17T21:42:47.114Z,99030.78
2022-11-17T21:45:49.393Z,99044.94
2022-11-17T21:48:53.671Z,99030.03
2022-11-17T21:51:55.751Z,99036.28
2022-11-17T21:54:59.193Z,99033.87
2022-11-17T21:58:02.018Z,98999.53
2022-11-17T22:01:15.612Z,99005.00
2022-11-17T22:04:19.275Z,99015.88
2022-11-17T22:07:21.681Z,99026.94
2022-11-17T22:10:24.542Z,98994.47
2022-11-17T22:13:26.797Z,99003.84
2022-11-17T22:16:29.331Z,99022.25
2022-11-17T22:19:33.701Z,99010.56
2022-11-17T22:22:36.194Z,99012.13
2022-11-17T22:25:45.318Z,99032.53
2022-11-17T22:28:56.090Z,99004.03
2022-11-17T22:31:58.329Z,98984.34
2022-11-17T22:35:01.812Z,99008.59
2022-11-17T22:38:04.369Z,98978.13
2022-11-17T22:41:07.954Z,98969.47
2022-11-17T22:44:13.811Z,98975.84
2022-11-17T22:47:16.420Z,98975.09
2022-11-17T22:50:18.777Z,98990.16
2022-11-17T22:53:21.436Z,98991.75
2022-11-17T22:56:23.785Z,98968.03
2022-11-17T22:59:27.776Z,98978.47
2022-11-17T23:02:30.032Z,98982.34
2022-11-17T23:05:32.604Z,98978.81
2022-11-17T23:08:34.908Z,98954.59
2022-11-17T23:11:40.628Z,98976.78
2022-11-17T23:14:43.218Z,98976.00
2022-11-17T23:17:45.829Z,98978.38
2022-11-17T23:20:48.541Z,98971.31
2022-11-17T23:23:51.592Z,98952.91
2022-11-17T23:26:53.952Z,98970.78
2022-11-17T23:29:56.535Z,98945.75
2022-11-17T23:32:58.858Z,98961.31
2022-11-17T23:36:02.646Z,98937.69
2022-11-17T23:39:05.095Z,98975.84
2022-11-17T23:42:07.692Z,98974.34
2022-11-17T23:45:11.821Z,98979.13
2022-11-17T23:48:14.340Z,98970.88
2022-11-17T23:51:19.925Z,98971.59
2022-11-17T23:54:22.511Z,98968.41
2022-11-17T23:57:24.746Z,98962.78
